sensor_id;sensor_type;location;lat;lon;timestamp;temperature;humidity
21216;DHT22;10765;50.954;5.322;2022-07-21T00:01:48;18.50;99.90
21216;DHT22;10765;50.954;5.322;2022-07-21T00:04:15;18.50;99.90
21216;DHT22;10765;50.954;5.322;2022-07-21T00:06:42;18.40;1.00
21216;DHT22;10765;50.954;5.322;2022-07-21T00:09:09;18.40;99.90
21216;DHT22;10765;50.954;5.322;2022-07-21T00:11:36;18.40;99.90
21216;DHT22;10765;50.954;5.322;2022-07-21T00:14:04;18.40;99.90
21216;DHT22;10765;50.954;5.322;2022-07-21T00:16:31;18.30;1.00
21216;DHT22;10765;50.954;5.322;2022-07-21T00:18:59;18.30;1.00
21216;DHT22;10765;50.954;5.322;2022-07-21T00:21:26;18.30;99.90
21216;DHT22;10765;50.954;5.322;2022-07-21T00:23:53;18.30;99.90
21216;DHT22;10765;50.954;5.322;2022-07-21T00:26:20;18.40;49.10
21216;DHT22;10765;50.954;5.322;2022-07-21T00:28:48;18.50;1.00
21216;DHT22;10765;50.954;5.322;2022-07-21T00:31:15;18.50;1.00
21216;DHT22;10765;50.954;5.322;2022-07-21T00:33:42;18.50;1.00
21216;DHT22;10765;50.954;5.322;2022-07-21T00:36:10;18.40;1.00
21216;DHT22;10765;50.954;5.322;2022-07-21T00:38:37;18.50;99.90
21216;DHT22;10765;50.954;5.322;2022-07-21T00:41:04;18.40;1.00
21216;DHT22;10765;50.954;5.322;2022-07-21T00:43:31;18.40;1.00
21216;DHT22;10765;50.954;5.322;2022-07-21T00:45:58;18.40;99.90
21216;DHT22;10765;50.954;5.322;2022-07-21T00:48:25;18.40;1.00
21216;DHT22;10765;50.954;5.322;2022-07-21T00:50:52;18.30;1.00
21216;DHT22;10765;50.954;5.322;2022-07-21T00:53:20;18.40;1.00
21216;DHT22;10765;50.954;5.322;2022-07-21T00:55:47;18.40;99.90
21216;DHT22;10765;50.954;5.322;2022-07-21T00:58:14;18.40;1.00
21216;DHT22;10765;50.954;5.322;2022-07-21T01:00:41;18.50;1.00
21216;DHT22;10765;50.954;5.322;2022-07-21T01:03:08;18.50;1.00
21216;DHT22;10765;50.954;5.322;2022-07-21T01:05:35;18.50;99.90
21216;DHT22;10765;50.954;5.322;2022-07-21T01:08:02;18.60;1.00
21216;DHT22;10765;50.954;5.322;2022-07-21T01:10:31;18.60;1.00
21216;DHT22;10765;50.954;5.322;2022-07-21T01:12:58;18.60;99.90
21216;DHT22;10765;50.954;5.322;2022-07-21T01:15:26;18.50;1.00
21216;DHT22;10765;50.954;5.322;2022-07-21T01:17:53;18.50;99.90
21216;DHT22;10765;50.954;5.322;2022-07-21T01:20:22;18.50;1.00
21216;DHT22;10765;50.954;5.322;2022-07-21T01:22:53;18.60;1.00
21216;DHT22;10765;50.954;5.322;2022-07-21T01:25:21;18.50;99.90
21216;DHT22;10765;50.954;5.322;2022-07-21T01:27:48;18.50;99.90
21216;DHT22;10765;50.954;5.322;2022-07-21T01:30:16;18.50;99.90
21216;DHT22;10765;50.954;5.322;2022-07-21T01:32:43;18.50;1.00
21216;DHT22;10765;50.954;5.322;2022-07-21T01:35:12;18.50;1.00
21216;DHT22;10765;50.954;5.322;2022-07-21T01:37:42;18.40;1.00
21216;DHT22;10765;50.954;5.322;2022-07-21T01:40:11;18.30;99.90
21216;DHT22;10765;50.954;5.322;2022-07-21T01:43:02;18.30;1.00
21216;DHT22;10765;50.954;5.322;2022-07-21T01:45:29;18.30;99.90
21216;DHT22;10765;50.954;5.322;2022-07-21T01:47:56;18.20;1.00
21216;DHT22;10765;50.954;5.322;2022-07-21T01:50:23;18.30;1.00
21216;DHT22;10765;50.954;5.322;2022-07-21T01:52:52;18.20;1.00
21216;DHT22;10765;50.954;5.322;2022-07-21T01:55:21;18.20;1.00
21216;DHT22;10765;50.954;5.322;2022-07-21T01:57:48;18.10;1.00
21216;DHT22;10765;50.954;5.322;2022-07-21T02:00:15;18.10;5.50
21216;DHT22;10765;50.954;5.322;2022-07-21T02:02:42;18.20;1.00
21216;DHT22;10765;50.954;5.322;2022-07-21T02:05:09;18.20;1.00
21216;DHT22;10765;50.954;5.322;2022-07-21T02:07:36;18.30;1.00
21216;DHT22;10765;50.954;5.322;2022-07-21T02:10:04;18.30;1.00
21216;DHT22;10765;50.954;5.322;2022-07-21T02:12:32;18.20;1.00
21216;DHT22;10765;50.954;5.322;2022-07-21T02:14:59;18.20;1.00
21216;DHT22;10765;50.954;5.322;2022-07-21T02:17:26;18.30;4.20
21216;DHT22;10765;50.954;5.322;2022-07-21T02:19:52;18.30;1.00
21216;DHT22;10765;50.954;5.322;2022-07-21T02:22:19;18.40;1.00
21216;DHT22;10765;50.954;5.322;2022-07-21T02:24:46;18.40;1.00
21216;DHT22;10765;50.954;5.322;2022-07-21T02:27:13;18.30;1.00
21216;DHT22;10765;50.954;5.322;2022-07-21T02:29:41;18.40;1.00
21216;DHT22;10765;50.954;5.322;2022-07-21T02:32:08;18.40;1.00
21216;DHT22;10765;50.954;5.322;2022-07-21T02:34:35;18.40;1.00
21216;DHT22;10765;50.954;5.322;2022-07-21T02:37:02;18.40;1.00
21216;DHT22;10765;50.954;5.322;2022-07-21T02:39:29;18.40;1.00
21216;DHT22;10765;50.954;5.322;2022-07-21T02:41:56;18.40;1.00
21216;DHT22;10765;50.954;5.322;2022-07-21T02:44:22;18.40;1.00
21216;DHT22;10765;50.954;5.322;2022-07-21T02:46:51;18.30;1.00
21216;DHT22;10765;50.954;5.322;2022-07-21T02:49:17;18.40;1.00
21216;DHT22;10765;50.954;5.322;2022-07-21T02:51:44;18.40;1.00
21216;DHT22;10765;50.954;5.322;2022-07-21T02:54:11;18.40;1.00
21216;DHT22;10765;50.954;5.322;2022-07-21T02:56:38;18.40;1.00
21216;DHT22;10765;50.954;5.322;2022-07-21T02:59:05;18.50;1.00
21216;DHT22;10765;50.954;5.322;2022-07-21T03:01:32;18.50;1.00
21216;DHT22;10765;50.954;5.322;2022-07-21T03:04:00;18.40;1.00
21216;DHT22;10765;50.954;5.322;2022-07-21T03:06:27;18.30;1.00
21216;DHT22;10765;50.954;5.322;2022-07-21T03:08:54;18.30;1.00
21216;DHT22;10765;50.954;5.322;2022-07-21T03:11:20;18.40;1.00
21216;DHT22;10765;50.954;5.322;2022-07-21T03:13:47;18.40;1.00
21216;DHT22;10765;50.954;5.322;2022-07-21T03:16:14;18.60;1.00
21216;DHT22;10765;50.954;5.322;2022-07-21T03:18:41;18.60;1.00
21216;DHT22;10765;50.954;5.322;2022-07-21T03:21:09;18.60;99.90
21216;DHT22;10765;50.954;5.322;2022-07-21T03:23:36;18.60;99.90
21216;DHT22;10765;50.954;5.322;2022-07-21T03:26:03;18.60;99.90
21216;DHT22;10765;50.954;5.322;2022-07-21T03:28:30;18.60;99.90
21216;DHT22;10765;50.954;5.322;2022-07-21T03:30:57;18.70;1.00
21216;DHT22;10765;50.954;5.322;2022-07-21T03:33:24;18.70;1.00
21216;DHT22;10765;50.954;5.322;2022-07-21T03:35:51;18.70;1.00
21216;DHT22;10765;50.954;5.322;2022-07-21T03:38:19;18.60;99.90
21216;DHT22;10765;50.954;5.322;2022-07-21T03:40:46;18.70;1.00
21216;DHT22;10765;50.954;5.322;2022-07-21T03:43:13;18.70;99.90
21216;DHT22;10765;50.954;5.322;2022-07-21T03:45:40;18.70;1.00
21216;DHT22;10765;50.954;5.322;2022-07-21T03:48:07;18.70;1.00
21216;DHT22;10765;50.954;5.322;2022-07-21T03:50:35;18.60;99.90
21216;DHT22;10765;50.954;5.322;2022-07-21T03:53:03;18.60;99.90
21216;DHT22;10765;50.954;5.322;2022-07-21T03:55:32;18.60;1.00
21216;DHT22;10765;50.954;5.322;2022-07-21T03:58:01;18.50;1.00
21216;DHT22;10765;50.954;5.322;2022-07-21T04:00:30;18.60;99.90
21216;DHT22;10765;50.954;5.322;2022-07-21T04:02:58;18.60;1.00
21216;DHT22;10765;50.954;5.322;2022-07-21T04:05:25;18.70;1.00
21216;DHT22;10765;50.954;5.322;2022-07-21T04:07:53;18.70;1.00
21216;DHT22;10765;50.954;5.322;2022-07-21T04:10:21;18.80;1.00
21216;DHT22;10765;50.954;5.322;2022-07-21T04:12:51;18.80;99.90
21216;DHT22;10765;50.954;5.322;2022-07-21T04:15:18;18.80;99.90
21216;DHT22;10765;50.954;5.322;2022-07-21T04:17:45;18.80;1.00
21216;DHT22;10765;50.954;5.322;2022-07-21T04:20:13;18.80;99.90
21216;DHT22;10765;50.954;5.322;2022-07-21T04:22:40;18.90;99.90
21216;DHT22;10765;50.954;5.322;2022-07-21T04:25:08;18.90;1.00
21216;DHT22;10765;50.954;5.322;2022-07-21T04:27:36;18.90;99.90
21216;DHT22;10765;50.954;5.322;2022-07-21T04:30:07;18.90;99.90
21216;DHT22;10765;50.954;5.322;2022-07-21T04:32:34;18.90;40.70
21216;DHT22;10765;50.954;5.322;2022-07-21T04:35:01;18.90;85.80
21216;DHT22;10765;50.954;5.322;2022-07-21T04:37:29;18.90;1.00
21216;DHT22;10765;50.954;5.322;2022-07-21T04:39:56;18.80;1.00
21216;DHT22;10765;50.954;5.322;2022-07-21T04:42:23;18.80;99.90
21216;DHT22;10765;50.954;5.322;2022-07-21T04:44:49;18.80;1.00
21216;DHT22;10765;50.954;5.322;2022-07-21T04:47:18;18.90;99.90
21216;DHT22;10765;50.954;5.322;2022-07-21T04:49:45;19.00;1.00
21216;DHT22;10765;50.954;5.322;2022-07-21T04:52:11;19.20;1.00
21216;DHT22;10765;50.954;5.322;2022-07-21T04:54:38;19.10;1.00
21216;DHT22;10765;50.954;5.322;2022-07-21T04:57:06;19.10;1.00
21216;DHT22;10765;50.954;5.322;2022-07-21T04:59:33;19.20;99.90
21216;DHT22;10765;50.954;5.322;2022-07-21T05:02:00;19.20;99.90
21216;DHT22;10765;50.954;5.322;2022-07-21T05:04:29;19.20;99.90
21216;DHT22;10765;50.954;5.322;2022-07-21T05:06:56;19.30;1.00
21216;DHT22;10765;50.954;5.322;2022-07-21T05:09:23;19.30;99.90
21216;DHT22;10765;50.954;5.322;2022-07-21T05:11:50;19.40;1.00
21216;DHT22;10765;50.954;5.322;2022-07-21T05:14:17;19.40;99.90
21216;DHT22;10765;50.954;5.322;2022-07-21T05:16:43;19.40;1.00
21216;DHT22;10765;50.954;5.322;2022-07-21T05:19:11;19.50;99.90
21216;DHT22;10765;50.954;5.322;2022-07-21T05:21:40;19.50;99.90
21216;DHT22;10765;50.954;5.322;2022-07-21T05:24:07;19.60;1.00
21216;DHT22;10765;50.954;5.322;2022-07-21T05:26:34;19.60;1.00
21216;DHT22;10765;50.954;5.322;2022-07-21T05:29:01;19.60;1.00
21216;DHT22;10765;50.954;5.322;2022-07-21T05:31:28;19.50;1.00
21216;DHT22;10765;50.954;5.322;2022-07-21T05:33:55;19.60;99.90
21216;DHT22;10765;50.954;5.322;2022-07-21T05:36:22;19.70;1.00
21216;DHT22;10765;50.954;5.322;2022-07-21T05:38:50;19.90;99.90
21216;DHT22;10765;50.954;5.322;2022-07-21T05:41:17;19.90;99.90
21216;DHT22;10765;50.954;5.322;2022-07-21T05:43:44;19.90;1.00
21216;DHT22;10765;50.954;5.322;2022-07-21T05:46:11;19.90;1.00
21216;DHT22;10765;50.954;5.322;2022-07-21T05:48:38;20.00;28.40
21216;DHT22;10765;50.954;5.322;2022-07-21T05:51:05;20.00;1.00
21216;DHT22;10765;50.954;5.322;2022-07-21T05:53:32;20.00;1.00
21216;DHT22;10765;50.954;5.322;2022-07-21T05:56:00;20.10;1.00
21216;DHT22;10765;50.954;5.322;2022-07-21T05:58:27;20.20;1.00
21216;DHT22;10765;50.954;5.322;2022-07-21T06:00:55;20.40;99.90
21216;DHT22;10765;50.954;5.322;2022-07-21T06:03:41;20.20;99.90
21216;DHT22;10765;50.954;5.322;2022-07-21T06:06:09;20.00;1.00
21216;DHT22;10765;50.954;5.322;2022-07-21T06:08:37;20.00;99.90
21216;DHT22;10765;50.954;5.322;2022-07-21T06:11:06;20.00;99.90
21216;DHT22;10765;50.954;5.322;2022-07-21T06:13:33;20.10;99.90
21216;DHT22;10765;50.954;5.322;2022-07-21T06:16:00;20.20;1.00
21216;DHT22;10765;50.954;5.322;2022-07-21T06:18:27;20.20;1.00
21216;DHT22;10765;50.954;5.322;2022-07-21T06:20:54;20.30;1.00
21216;DHT22;10765;50.954;5.322;2022-07-21T06:23:21;20.30;1.00
21216;DHT22;10765;50.954;5.322;2022-07-21T06:25:48;20.70;99.90
21216;DHT22;10765;50.954;5.322;2022-07-21T06:28:18;20.90;1.00
21216;DHT22;10765;50.954;5.322;2022-07-21T06:30:45;20.80;1.00
21216;DHT22;10765;50.954;5.322;2022-07-21T06:33:12;20.70;1.00
21216;DHT22;10765;50.954;5.322;2022-07-21T06:35:39;20.80;1.00
21216;DHT22;10765;50.954;5.322;2022-07-21T06:38:06;20.50;1.00
21216;DHT22;10765;50.954;5.322;2022-07-21T06:40:35;20.50;1.00
21216;DHT22;10765;50.954;5.322;2022-07-21T06:43:02;20.60;1.00
21216;DHT22;10765;50.954;5.322;2022-07-21T06:45:31;20.60;1.00
21216;DHT22;10765;50.954;5.322;2022-07-21T06:48:02;20.70;1.00
21216;DHT22;10765;50.954;5.322;2022-07-21T06:50:29;20.70;1.00
21216;DHT22;10765;50.954;5.322;2022-07-21T06:52:56;20.80;1.00
21216;DHT22;10765;50.954;5.322;2022-07-21T06:55:23;20.60;1.00
21216;DHT22;10765;50.954;5.322;2022-07-21T06:57:50;20.60;1.00
21216;DHT22;10765;50.954;5.322;2022-07-21T07:00:17;20.50;1.00
21216;DHT22;10765;50.954;5.322;2022-07-21T07:02:46;20.40;6.50
21216;DHT22;10765;50.954;5.322;2022-07-21T07:05:13;20.30;1.00
21216;DHT22;10765;50.954;5.322;2022-07-21T07:07:40;20.60;34.00
21216;DHT22;10765;50.954;5.322;2022-07-21T07:10:09;20.80;1.00
21216;DHT22;10765;50.954;5.322;2022-07-21T07:12:36;20.90;1.00
21216;DHT22;10765;50.954;5.322;2022-07-21T07:15:03;20.80;1.00
21216;DHT22;10765;50.954;5.322;2022-07-21T07:17:30;20.80;1.00
21216;DHT22;10765;50.954;5.322;2022-07-21T07:19:59;20.80;1.00
21216;DHT22;10765;50.954;5.322;2022-07-21T07:22:26;20.70;1.00
21216;DHT22;10765;50.954;5.322;2022-07-21T07:24:52;20.80;99.90
21216;DHT22;10765;50.954;5.322;2022-07-21T07:27:19;20.60;99.90
21216;DHT22;10765;50.954;5.322;2022-07-21T07:29:46;20.30;99.90
21216;DHT22;10765;50.954;5.322;2022-07-21T07:32:13;20.20;1.00
21216;DHT22;10765;50.954;5.322;2022-07-21T07:34:40;19.90;1.00
21216;DHT22;10765;50.954;5.322;2022-07-21T07:37:08;19.70;1.00
21216;DHT22;10765;50.954;5.322;2022-07-21T07:39:35;19.50;99.90
21216;DHT22;10765;50.954;5.322;2022-07-21T07:42:03;19.50;21.10
21216;DHT22;10765;50.954;5.322;2022-07-21T07:44:30;19.50;99.90
21216;DHT22;10765;50.954;5.322;2022-07-21T07:46:57;19.50;99.90
21216;DHT22;10765;50.954;5.322;2022-07-21T07:49:27;19.30;1.00
21216;DHT22;10765;50.954;5.322;2022-07-21T07:51:54;19.10;99.90
21216;DHT22;10765;50.954;5.322;2022-07-21T07:54:22;19.00;1.00
21216;DHT22;10765;50.954;5.322;2022-07-21T07:56:49;18.90;1.00
21216;DHT22;10765;50.954;5.322;2022-07-21T07:59:17;18.90;99.70
21216;DHT22;10765;50.954;5.322;2022-07-21T08:01:44;18.90;1.00
21216;DHT22;10765;50.954;5.322;2022-07-21T08:04:10;18.70;1.00
21216;DHT22;10765;50.954;5.322;2022-07-21T08:06:39;18.80;54.60
21216;DHT22;10765;50.954;5.322;2022-07-21T08:09:06;18.90;99.90
21216;DHT22;10765;50.954;5.322;2022-07-21T08:11:35;18.90;99.90
21216;DHT22;10765;50.954;5.322;2022-07-21T08:14:02;19.00;99.90
21216;DHT22;10765;50.954;5.322;2022-07-21T08:16:29;18.90;54.30
21216;DHT22;10765;50.954;5.322;2022-07-21T08:18:56;19.00;99.90
21216;DHT22;10765;50.954;5.322;2022-07-21T08:21:23;19.00;99.90
21216;DHT22;10765;50.954;5.322;2022-07-21T08:23:56;19.00;99.90
21216;DHT22;10765;50.954;5.322;2022-07-21T08:26:23;19.20;99.90
21216;DHT22;10765;50.954;5.322;2022-07-21T08:28:51;19.30;99.90
21216;DHT22;10765;50.954;5.322;2022-07-21T08:31:19;19.30;99.90
21216;DHT22;10765;50.954;5.322;2022-07-21T08:33:46;19.40;99.90
21216;DHT22;10765;50.954;5.322;2022-07-21T08:36:13;19.30;56.70
21216;DHT22;10765;50.954;5.322;2022-07-21T08:38:40;19.40;99.90
21216;DHT22;10765;50.954;5.322;2022-07-21T08:41:07;19.40;33.10
21216;DHT22;10765;50.954;5.322;2022-07-21T08:43:34;19.30;99.90
21216;DHT22;10765;50.954;5.322;2022-07-21T08:46:03;19.30;99.90
21216;DHT22;10765;50.954;5.322;2022-07-21T08:48:31;19.30;99.90
21216;DHT22;10765;50.954;5.322;2022-07-21T08:50:59;19.10;99.90
21216;DHT22;10765;50.954;5.322;2022-07-21T08:53:25;19.00;99.90
21216;DHT22;10765;50.954;5.322;2022-07-21T08:55:54;19.10;99.90
21216;DHT22;10765;50.954;5.322;2022-07-21T08:58:21;19.10;99.90
21216;DHT22;10765;50.954;5.322;2022-07-21T09:00:50;19.20;99.90
21216;DHT22;10765;50.954;5.322;2022-07-21T09:03:19;19.10;99.90
21216;DHT22;10765;50.954;5.322;2022-07-21T09:06:01;19.00;99.90
21216;DHT22;10765;50.954;5.322;2022-07-21T09:08:32;18.70;99.90
21216;DHT22;10765;50.954;5.322;2022-07-21T09:11:10;18.70;99.90
21216;DHT22;10765;50.954;5.322;2022-07-21T09:13:38;18.80;99.90
21216;DHT22;10765;50.954;5.322;2022-07-21T09:16:05;18.70;99.90
21216;DHT22;10765;50.954;5.322;2022-07-21T09:18:34;18.70;99.90
21216;DHT22;10765;50.954;5.322;2022-07-21T09:21:12;18.70;99.90
21216;DHT22;10765;50.954;5.322;2022-07-21T09:23:41;18.60;99.90
21216;DHT22;10765;50.954;5.322;2022-07-21T09:26:08;18.60;99.90
21216;DHT22;10765;50.954;5.322;2022-07-21T09:28:35;18.60;99.90
21216;DHT22;10765;50.954;5.322;2022-07-21T09:31:05;18.80;99.90
21216;DHT22;10765;50.954;5.322;2022-07-21T09:33:35;18.70;99.90
21216;DHT22;10765;50.954;5.322;2022-07-21T09:36:05;18.60;99.90
21216;DHT22;10765;50.954;5.322;2022-07-21T09:38:36;18.60;99.90
21216;DHT22;10765;50.954;5.322;2022-07-21T09:41:05;18.50;99.90
21216;DHT22;10765;50.954;5.322;2022-07-21T09:43:35;18.50;99.90
21216;DHT22;10765;50.954;5.322;2022-07-21T09:46:09;18.60;99.90
21216;DHT22;10765;50.954;5.322;2022-07-21T09:48:40;18.60;99.90
21216;DHT22;10765;50.954;5.322;2022-07-21T09:51:25;18.70;99.90
21216;DHT22;10765;50.954;5.322;2022-07-21T09:53:58;18.70;99.90
21216;DHT22;10765;50.954;5.322;2022-07-21T09:56:30;18.70;99.90
21216;DHT22;10765;50.954;5.322;2022-07-21T09:58:59;18.70;99.90
21216;DHT22;10765;50.954;5.322;2022-07-21T10:01:27;18.60;99.90
21216;DHT22;10765;50.954;5.322;2022-07-21T10:03:57;18.70;99.90
21216;DHT22;10765;50.954;5.322;2022-07-21T10:06:26;18.70;99.90
21216;DHT22;10765;50.954;5.322;2022-07-21T10:08:54;18.50;99.90
21216;DHT22;10765;50.954;5.322;2022-07-21T10:11:22;18.50;99.90
21216;DHT22;10765;50.954;5.322;2022-07-21T10:13:49;18.50;99.90
21216;DHT22;10765;50.954;5.322;2022-07-21T10:16:16;18.50;99.90
21216;DHT22;10765;50.954;5.322;2022-07-21T10:18:52;18.50;99.90
21216;DHT22;10765;50.954;5.322;2022-07-21T10:21:32;18.60;99.90
21216;DHT22;10765;50.954;5.322;2022-07-21T10:24:02;18.50;99.90
21216;DHT22;10765;50.954;5.322;2022-07-21T10:26:30;18.40;99.90
21216;DHT22;10765;50.954;5.322;2022-07-21T10:28:57;18.40;99.90
21216;DHT22;10765;50.954;5.322;2022-07-21T10:31:25;18.30;99.90
21216;DHT22;10765;50.954;5.322;2022-07-21T10:34:00;18.30;99.90
21216;DHT22;10765;50.954;5.322;2022-07-21T10:36:46;18.30;99.90
21216;DHT22;10765;50.954;5.322;2022-07-21T10:39:24;18.20;99.90
21216;DHT22;10765;50.954;5.322;2022-07-21T10:41:54;18.20;99.90
21216;DHT22;10765;50.954;5.322;2022-07-21T10:44:41;18.10;99.90
21216;DHT22;10765;50.954;5.322;2022-07-21T10:47:11;18.20;99.90
21216;DHT22;10765;50.954;5.322;2022-07-21T10:49:46;18.30;99.90
21216;DHT22;10765;50.954;5.322;2022-07-21T10:55:19;18.30;99.90
21216;DHT22;10765;50.954;5.322;2022-07-21T10:58:24;18.30;99.90
21216;DHT22;10765;50.954;5.322;2022-07-21T11:00:52;18.40;99.90
21216;DHT22;10765;50.954;5.322;2022-07-21T11:03:25;18.40;99.90
21216;DHT22;10765;50.954;5.322;2022-07-21T11:06:16;18.60;99.90
21216;DHT22;10765;50.954;5.322;2022-07-21T11:08:45;18.50;99.90
21216;DHT22;10765;50.954;5.322;2022-07-21T11:11:16;18.50;99.90
21216;DHT22;10765;50.954;5.322;2022-07-21T11:14:02;18.70;99.90
21216;DHT22;10765;50.954;5.322;2022-07-21T11:19:36;19.00;99.90
21216;DHT22;10765;50.954;5.322;2022-07-21T11:22:06;19.00;99.90
21216;DHT22;10765;50.954;5.322;2022-07-21T11:24:35;19.20;99.90
21216;DHT22;10765;50.954;5.322;2022-07-21T11:27:05;19.50;99.90
21216;DHT22;10765;50.954;5.322;2022-07-21T11:29:34;19.30;99.90
21216;DHT22;10765;50.954;5.322;2022-07-21T11:32:03;19.30;99.90
21216;DHT22;10765;50.954;5.322;2022-07-21T11:34:42;19.50;99.90
21216;DHT22;10765;50.954;5.322;2022-07-21T11:37:10;19.70;99.90
21216;DHT22;10765;50.954;5.322;2022-07-21T11:39:38;19.80;99.90
21216;DHT22;10765;50.954;5.322;2022-07-21T11:42:08;20.10;99.90
21216;DHT22;10765;50.954;5.322;2022-07-21T11:44:36;20.40;99.90
21216;DHT22;10765;50.954;5.322;2022-07-21T11:47:04;20.70;99.90
21216;DHT22;10765;50.954;5.322;2022-07-21T11:49:32;21.10;99.90
21216;DHT22;10765;50.954;5.322;2022-07-21T11:52:02;21.20;99.90
21216;DHT22;10765;50.954;5.322;2022-07-21T11:54:32;21.60;75.20
21216;DHT22;10765;50.954;5.322;2022-07-21T11:57:00;22.10;99.90
21216;DHT22;10765;50.954;5.322;2022-07-21T11:59:29;22.00;99.90
21216;DHT22;10765;50.954;5.322;2022-07-21T12:02:00;21.60;99.90
21216;DHT22;10765;50.954;5.322;2022-07-21T12:04:35;21.80;1.00
21216;DHT22;10765;50.954;5.322;2022-07-21T12:07:04;21.50;99.90
21216;DHT22;10765;50.954;5.322;2022-07-21T12:09:32;21.10;1.00
21216;DHT22;10765;50.954;5.322;2022-07-21T12:11:59;20.60;1.00
21216;DHT22;10765;50.954;5.322;2022-07-21T12:14:43;20.10;99.90
21216;DHT22;10765;50.954;5.322;2022-07-21T12:17:10;19.90;1.00
21216;DHT22;10765;50.954;5.322;2022-07-21T12:19:37;19.50;99.90
21216;DHT22;10765;50.954;5.322;2022-07-21T12:22:05;19.40;1.00
21216;DHT22;10765;50.954;5.322;2022-07-21T12:24:55;19.20;1.00
21216;DHT22;10765;50.954;5.322;2022-07-21T12:27:23;19.10;1.00
21216;DHT22;10765;50.954;5.322;2022-07-21T12:29:53;19.10;1.00
21216;DHT22;10765;50.954;5.322;2022-07-21T12:32:43;19.00;1.00
21216;DHT22;10765;50.954;5.322;2022-07-21T12:35:21;19.20;1.00
21216;DHT22;10765;50.954;5.322;2022-07-21T12:38:07;19.30;99.90
21216;DHT22;10765;50.954;5.322;2022-07-21T12:40:36;19.40;99.90
21216;DHT22;10765;50.954;5.322;2022-07-21T12:43:12;19.80;1.00
21216;DHT22;10765;50.954;5.322;2022-07-21T12:45:51;20.00;99.90
21216;DHT22;10765;50.954;5.322;2022-07-21T12:48:20;20.10;99.90
21216;DHT22;10765;50.954;5.322;2022-07-21T12:51:03;20.00;99.90
21216;DHT22;10765;50.954;5.322;2022-07-21T12:53:31;19.70;1.00
21216;DHT22;10765;50.954;5.322;2022-07-21T12:55:58;19.70;99.90
21216;DHT22;10765;50.954;5.322;2022-07-21T12:58:25;19.70;1.00
21216;DHT22;10765;50.954;5.322;2022-07-21T13:00:54;19.50;1.00
21216;DHT22;10765;50.954;5.322;2022-07-21T13:03:21;19.60;1.00
21216;DHT22;10765;50.954;5.322;2022-07-21T13:05:48;19.90;99.90
21216;DHT22;10765;50.954;5.322;2022-07-21T13:08:15;20.20;1.00
21216;DHT22;10765;50.954;5.322;2022-07-21T13:10:42;20.50;99.90
21216;DHT22;10765;50.954;5.322;2022-07-21T13:13:10;20.70;1.00
21216;DHT22;10765;50.954;5.322;2022-07-21T13:15:37;20.50;99.90
21216;DHT22;10765;50.954;5.322;2022-07-21T13:18:05;20.80;99.90
21216;DHT22;10765;50.954;5.322;2022-07-21T13:20:32;21.40;99.90
21216;DHT22;10765;50.954;5.322;2022-07-21T13:22:59;21.10;1.00
21216;DHT22;10765;50.954;5.322;2022-07-21T13:25:26;20.60;99.90
21216;DHT22;10765;50.954;5.322;2022-07-21T13:27:53;20.50;1.00
21216;DHT22;10765;50.954;5.322;2022-07-21T13:30:20;20.00;73.50
21216;DHT22;10765;50.954;5.322;2022-07-21T13:32:47;19.70;1.00
21216;DHT22;10765;50.954;5.322;2022-07-21T13:35:15;19.80;99.90
21216;DHT22;10765;50.954;5.322;2022-07-21T13:37:42;19.80;99.90
21216;DHT22;10765;50.954;5.322;2022-07-21T13:40:09;20.00;1.00
21216;DHT22;10765;50.954;5.322;2022-07-21T13:42:36;20.00;99.90
21216;DHT22;10765;50.954;5.322;2022-07-21T13:45:04;19.80;1.00
21216;DHT22;10765;50.954;5.322;2022-07-21T13:47:33;20.10;99.90
21216;DHT22;10765;50.954;5.322;2022-07-21T13:50:00;20.20;99.90
21216;DHT22;10765;50.954;5.322;2022-07-21T13:52:28;20.30;1.00
21216;DHT22;10765;50.954;5.322;2022-07-21T13:54:55;20.20;99.90
21216;DHT22;10765;50.954;5.322;2022-07-21T13:57:22;20.20;99.90
21216;DHT22;10765;50.954;5.322;2022-07-21T13:59:48;20.40;99.90
21216;DHT22;10765;50.954;5.322;2022-07-21T14:02:15;20.40;1.00
21216;DHT22;10765;50.954;5.322;2022-07-21T14:04:43;20.10;1.00
21216;DHT22;10765;50.954;5.322;2022-07-21T14:07:10;19.90;1.00
21216;DHT22;10765;50.954;5.322;2022-07-21T14:09:40;20.00;1.00
21216;DHT22;10765;50.954;5.322;2022-07-21T14:12:08;20.00;75.60
21216;DHT22;10765;50.954;5.322;2022-07-21T14:14:35;20.30;1.00
21216;DHT22;10765;50.954;5.322;2022-07-21T14:17:02;20.50;61.90
21216;DHT22;10765;50.954;5.322;2022-07-21T14:19:29;20.50;99.90
21216;DHT22;10765;50.954;5.322;2022-07-21T14:21:56;20.70;1.00
21216;DHT22;10765;50.954;5.322;2022-07-21T14:24:23;20.70;1.00
21216;DHT22;10765;50.954;5.322;2022-07-21T14:27:09;20.10;99.90
21216;DHT22;10765;50.954;5.322;2022-07-21T14:29:36;19.70;1.00
21216;DHT22;10765;50.954;5.322;2022-07-21T14:32:03;19.50;1.00
21216;DHT22;10765;50.954;5.322;2022-07-21T14:34:30;19.10;99.90
21216;DHT22;10765;50.954;5.322;2022-07-21T14:36:57;18.90;99.90
21216;DHT22;10765;50.954;5.322;2022-07-21T14:39:24;18.80;1.00
21216;DHT22;10765;50.954;5.322;2022-07-21T14:41:51;18.70;1.00
21216;DHT22;10765;50.954;5.322;2022-07-21T14:44:19;18.70;1.00
21216;DHT22;10765;50.954;5.322;2022-07-21T14:46:46;18.90;1.00
21216;DHT22;10765;50.954;5.322;2022-07-21T14:49:13;18.90;99.90
21216;DHT22;10765;50.954;5.322;2022-07-21T14:51:40;18.90;1.00
21216;DHT22;10765;50.954;5.322;2022-07-21T14:54:06;18.90;1.00
21216;DHT22;10765;50.954;5.322;2022-07-21T14:56:33;19.10;99.90
21216;DHT22;10765;50.954;5.322;2022-07-21T14:59:00;19.40;99.90
21216;DHT22;10765;50.954;5.322;2022-07-21T15:01:29;19.10;1.00
21216;DHT22;10765;50.954;5.322;2022-07-21T15:03:56;19.00;99.90
21216;DHT22;10765;50.954;5.322;2022-07-21T15:06:22;18.90;1.00
21216;DHT22;10765;50.954;5.322;2022-07-21T15:08:49;19.00;1.00
21216;DHT22;10765;50.954;5.322;2022-07-21T15:11:16;19.10;1.00
21216;DHT22;10765;50.954;5.322;2022-07-21T15:13:43;19.00;1.00
21216;DHT22;10765;50.954;5.322;2022-07-21T15:16:10;18.90;1.00
21216;DHT22;10765;50.954;5.322;2022-07-21T15:18:38;18.90;1.00
21216;DHT22;10765;50.954;5.322;2022-07-21T15:21:05;18.90;99.90
21216;DHT22;10765;50.954;5.322;2022-07-21T15:23:32;18.80;99.90
21216;DHT22;10765;50.954;5.322;2022-07-21T15:25:59;18.90;1.00
21216;DHT22;10765;50.954;5.322;2022-07-21T15:28:27;18.80;1.00
21216;DHT22;10765;50.954;5.322;2022-07-21T15:30:53;18.80;1.00
21216;DHT22;10765;50.954;5.322;2022-07-21T15:33:20;18.80;99.90
21216;DHT22;10765;50.954;5.322;2022-07-21T15:35:49;18.80;1.00
21216;DHT22;10765;50.954;5.322;2022-07-21T15:38:19;18.80;1.00
21216;DHT22;10765;50.954;5.322;2022-07-21T15:40:47;18.70;1.00
21216;DHT22;10765;50.954;5.322;2022-07-21T15:43:14;19.00;99.90
21216;DHT22;10765;50.954;5.322;2022-07-21T15:45:41;19.40;1.00
21216;DHT22;10765;50.954;5.322;2022-07-21T15:48:08;19.70;1.00
21216;DHT22;10765;50.954;5.322;2022-07-21T15:50:35;20.00;92.90
21216;DHT22;10765;50.954;5.322;2022-07-21T15:53:04;20.00;1.00